sensor_id;sensor_type;location;lat;lon;timestamp;pressure;altitude;pressure_sealevel;temperature;humidity
15382;BME280;7789;51.364;12.358;2024-01-27T00:03:33;101674.38;;;6.92;100.00
15382;BME280;7789;51.364;12.358;2024-01-27T00:08:41;101675.06;;;6.95;100.00
15382;BME280;7789;51.364;12.358;2024-01-27T00:13:47;101681.94;;;6.96;100.00
15382;BME280;7789;51.364;12.358;2024-01-27T00:18:51;101695.06;;;6.93;100.00
15382;BME280;7789;51.364;12.358;2024-01-27T00:23:57;101696.75;;;6.94;100.00
15382;BME280;7789;51.364;12.358;2024-01-27T00:29:03;101699.16;;;6.99;100.00
15382;BME280;7789;51.364;12.358;2024-01-27T00:34:06;101700.13;;;6.96;100.00
15382;BME280;7789;51.364;12.358;2024-01-27T00:39:11;101696.72;;;6.96;100.00
15382;BME280;7789;51.364;12.358;2024-01-27T00:44:15;101709.34;;;6.85;100.00
15382;BME280;7789;51.364;12.358;2024-01-27T00:49:19;101712.84;;;6.84;100.00
15382;BME280;7789;51.364;12.358;2024-01-27T00:54:24;101713.91;;;6.80;100.00
15382;BME280;7789;51.364;12.358;2024-01-27T00:59:28;101711.25;;;6.81;100.00
15382;BME280;7789;51.364;12.358;2024-01-27T01:04:31;101710.38;;;6.81;100.00
15382;BME280;7789;51.364;12.358;2024-01-27T01:09:36;101717.56;;;6.76;100.00
15382;BME280;7789;51.364;12.358;2024-01-27T01:14:40;101733.19;;;6.74;100.00
15382;BME280;7789;51.364;12.358;2024-01-27T01:19:44;101734.88;;;6.75;100.00
15382;BME280;7789;51.364;12.358;2024-01-27T01:24:51;101747.09;;;6.73;100.00
15382;BME280;7789;51.364;12.358;2024-01-27T01:29:54;101765.94;;;6.78;100.00
15382;BME280;7789;51.364;12.358;2024-01-27T01:34:58;101758.22;;;6.77;100.00
15382;BME280;7789;51.364;12.358;2024-01-27T01:40:03;101754.91;;;6.73;100.00
15382;BME280;7789;51.364;12.358;2024-01-27T01:45:09;101731.06;;;6.64;100.00
15382;BME280;7789;51.364;12.358;2024-01-27T01:50:14;101739.06;;;6.59;100.00
15382;BME280;7789;51.364;12.358;2024-01-27T01:55:19;101747.84;;;6.57;99.51
15382;BME280;7789;51.364;12.358;2024-01-27T02:00:22;101750.47;;;6.57;99.97
15382;BME280;7789;51.364;12.358;2024-01-27T02:05:26;101751.78;;;6.45;99.15
15382;BME280;7789;51.364;12.358;2024-01-27T02:10:31;101761.28;;;6.46;98.46
15382;BME280;7789;51.364;12.358;2024-01-27T02:15:39;101764.09;;;6.42;98.46
15382;BME280;7789;51.364;12.358;2024-01-27T02:20:43;101764.28;;;6.37;97.92
15382;BME280;7789;51.364;12.358;2024-01-27T02:25:48;101769.75;;;6.31;97.64
15382;BME280;7789;51.364;12.358;2024-01-27T02:30:52;101778.53;;;6.27;97.91
15382;BME280;7789;51.364;12.358;2024-01-27T02:35:56;101782.34;;;6.19;97.54
15382;BME280;7789;51.364;12.358;2024-01-27T02:41:01;101779.50;;;6.05;98.11
15382;BME280;7789;51.364;12.358;2024-01-27T02:46:07;101778.06;;;5.98;97.84
15382;BME280;7789;51.364;12.358;2024-01-27T02:51:11;101779.88;;;5.96;97.51
15382;BME280;7789;51.364;12.358;2024-01-27T02:56:17;101784.94;;;5.99;97.85
15382;BME280;7789;51.364;12.358;2024-01-27T03:01:20;101796.81;;;6.04;97.91
15382;BME280;7789;51.364;12.358;2024-01-27T03:06:24;101795.09;;;6.05;97.53
15382;BME280;7789;51.364;12.358;2024-01-27T03:11:28;101804.47;;;6.07;97.50
15382;BME280;7789;51.364;12.358;2024-01-27T03:16:32;101818.19;;;6.11;97.10
15382;BME280;7789;51.364;12.358;2024-01-27T03:21:36;101823.38;;;6.11;96.69
15382;BME280;7789;51.364;12.358;2024-01-27T03:26:41;101820.91;;;6.08;96.65
15382;BME280;7789;51.364;12.358;2024-01-27T03:31:44;101814.22;;;6.02;96.36
15382;BME280;7789;51.364;12.358;2024-01-27T03:36:48;101827.63;;;5.92;96.78
15382;BME280;7789;51.364;12.358;2024-01-27T03:41:53;101839.47;;;5.76;97.16
15382;BME280;7789;51.364;12.358;2024-01-27T03:46:56;101836.53;;;5.62;97.58
15382;BME280;7789;51.364;12.358;2024-01-27T03:51:59;101843.88;;;5.51;98.10
15382;BME280;7789;51.364;12.358;2024-01-27T03:57:04;101845.00;;;5.44;98.40
15382;BME280;7789;51.364;12.358;2024-01-27T04:02:11;101841.75;;;5.39;98.70
15382;BME280;7789;51.364;12.358;2024-01-27T04:07:15;101830.53;;;5.38;98.67
15382;BME280;7789;51.364;12.358;2024-01-27T04:12:20;101852.94;;;5.39;98.64
15382;BME280;7789;51.364;12.358;2024-01-27T04:17:25;101861.47;;;5.43;98.71
15382;BME280;7789;51.364;12.358;2024-01-27T04:22:29;101855.53;;;5.39;98.51
15382;BME280;7789;51.364;12.358;2024-01-27T04:27:38;101844.56;;;5.33;98.74
15382;BME280;7789;51.364;12.358;2024-01-27T04:32:41;101848.66;;;5.38;98.79
15382;BME280;7789;51.364;12.358;2024-01-27T04:37:45;101853.06;;;5.37;99.25
15382;BME280;7789;51.364;12.358;2024-01-27T04:42:50;101857.72;;;5.29;99.13
15382;BME280;7789;51.364;12.358;2024-01-27T04:47:54;101864.31;;;5.37;99.74
15382;BME280;7789;51.364;12.358;2024-01-27T04:52:57;101859.00;;;5.40;99.71
15382;BME280;7789;51.364;12.358;2024-01-27T04:58:02;101856.44;;;5.38;99.71
15382;BME280;7789;51.364;12.358;2024-01-27T05:03:06;101863.59;;;5.32;100.00
15382;BME280;7789;51.364;12.358;2024-01-27T05:08:17;101861.34;;;5.23;100.00
15382;BME280;7789;51.364;12.358;2024-01-27T05:13:22;101859.81;;;5.18;100.00
15382;BME280;7789;51.364;12.358;2024-01-27T05:18:25;101869.25;;;5.20;100.00
15382;BME280;7789;51.364;12.358;2024-01-27T05:23:29;101866.44;;;5.26;100.00
15382;BME280;7789;51.364;12.358;2024-01-27T05:28:34;101868.63;;;5.37;100.00
15382;BME280;7789;51.364;12.358;2024-01-27T05:33:39;101870.03;;;5.45;100.00
15382;BME280;7789;51.364;12.358;2024-01-27T05:38:43;101882.69;;;5.54;100.00
15382;BME280;7789;51.364;12.358;2024-01-27T05:43:47;101877.19;;;5.61;100.00
15382;BME280;7789;51.364;12.358;2024-01-27T05:48:51;101876.97;;;5.67;100.00
15382;BME280;7789;51.364;12.358;2024-01-27T05:53:56;101879.59;;;5.66;100.00
15382;BME280;7789;51.364;12.358;2024-01-27T05:59:01;101883.69;;;5.73;100.00
15382;BME280;7789;51.364;12.358;2024-01-27T06:04:05;101889.84;;;5.69;100.00
15382;BME280;7789;51.364;12.358;2024-01-27T06:09:08;101900.44;;;5.64;100.00
15382;BME280;7789;51.364;12.358;2024-01-27T06:14:15;101899.03;;;5.77;100.00
15382;BME280;7789;51.364;12.358;2024-01-27T06:19:18;101903.19;;;5.83;100.00
15382;BME280;7789;51.364;12.358;2024-01-27T06:24:21;101928.84;;;5.90;100.00
15382;BME280;7789;51.364;12.358;2024-01-27T06:29:26;101932.19;;;5.94;100.00
15382;BME280;7789;51.364;12.358;2024-01-27T06:34:31;101931.16;;;5.98;100.00
15382;BME280;7789;51.364;12.358;2024-01-27T06:39:35;101933.16;;;5.91;100.00
15382;BME280;7789;51.364;12.358;2024-01-27T06:44:40;101946.59;;;5.79;100.00
15382;BME280;7789;51.364;12.358;2024-01-27T06:49:44;101942.59;;;5.69;100.00
15382;BME280;7789;51.364;12.358;2024-01-27T06:54:51;101938.34;;;5.67;100.00
15382;BME280;7789;51.364;12.358;2024-01-27T06:59:56;101948.09;;;5.60;100.00
15382;BME280;7789;51.364;12.358;2024-01-27T07:05:00;101965.78;;;5.74;100.00
15382;BME280;7789;51.364;12.358;2024-01-27T07:10:04;101964.63;;;5.82;100.00
15382;BME280;7789;51.364;12.358;2024-01-27T07:15:11;101974.81;;;5.87;100.00
15382;BME280;7789;51.364;12.358;2024-01-27T07:20:14;101980.63;;;5.93;100.00
15382;BME280;7789;51.364;12.358;2024-01-27T07:25:18;101973.56;;;5.98;100.00
15382;BME280;7789;51.364;12.358;2024-01-27T07:30:23;101982.03;;;6.02;100.00
15382;BME280;7789;51.364;12.358;2024-01-27T07:35:27;101982.75;;;6.07;100.00
15382;BME280;7789;51.364;12.358;2024-01-27T07:40:30;101987.94;;;6.07;100.00
15382;BME280;7789;51.364;12.358;2024-01-27T07:45:35;102009.19;;;6.16;100.00
15382;BME280;7789;51.364;12.358;2024-01-27T07:50:39;102013.31;;;6.22;100.00
15382;BME280;7789;51.364;12.358;2024-01-27T07:55:42;102014.47;;;6.36;100.00
15382;BME280;7789;51.364;12.358;2024-01-27T08:00:47;102015.22;;;6.40;99.73
15382;BME280;7789;51.364;12.358;2024-01-27T08:05:51;102016.72;;;6.45;100.00
15382;BME280;7789;51.364;12.358;2024-01-27T08:10:55;102025.38;;;6.46;99.47
15382;BME280;7789;51.364;12.358;2024-01-27T08:15:59;102018.53;;;6.43;100.00
15382;BME280;7789;51.364;12.358;2024-01-27T08:21:03;102026.50;;;6.39;99.67
15382;BME280;7789;51.364;12.358;2024-01-27T08:26:07;102021.31;;;6.39;99.57
15382;BME280;7789;51.364;12.358;2024-01-27T08:31:12;102033.97;;;6.46;99.74
15382;BME280;7789;51.364;12.358;2024-01-27T08:36:15;102036.19;;;6.57;98.88
15382;BME280;7789;51.364;12.358;2024-01-27T08:41:19;102038.28;;;6.69;98.50
15382;BME280;7789;51.364;12.358;2024-01-27T08:46:23;102045.44;;;6.85;98.60
15382;BME280;7789;51.364;12.358;2024-01-27T08:51:27;102040.25;;;7.07;97.73
15382;BME280;7789;51.364;12.358;2024-01-27T08:56:30;102056.41;;;7.13;98.26
15382;BME280;7789;51.364;12.358;2024-01-27T09:01:36;102059.38;;;7.26;96.50
15382;BME280;7789;51.364;12.358;2024-01-27T09:06:40;102065.63;;;7.41;96.98
15382;BME280;7789;51.364;12.358;2024-01-27T09:11:43;102063.28;;;7.55;96.71
15382;BME280;7789;51.364;12.358;2024-01-27T09:16:49;102060.16;;;7.67;95.72
15382;BME280;7789;51.364;12.358;2024-01-27T09:21:54;102068.22;;;7.81;95.36
15382;BME280;7789;51.364;12.358;2024-01-27T09:26:58;102072.84;;;7.95;95.16
15382;BME280;7789;51.364;12.358;2024-01-27T09:32:04;102087.59;;;8.14;95.22
15382;BME280;7789;51.364;12.358;2024-01-27T09:37:08;102081.03;;;8.26;94.28
15382;BME280;7789;51.364;12.358;2024-01-27T09:42:13;102077.59;;;8.44;93.68
15382;BME280;7789;51.364;12.358;2024-01-27T09:47:19;102067.59;;;8.53;93.40
15382;BME280;7789;51.364;12.358;2024-01-27T09:52:23;102073.97;;;8.65;92.26
15382;BME280;7789;51.364;12.358;2024-01-27T09:57:27;102074.91;;;8.82;92.13
15382;BME280;7789;51.364;12.358;2024-01-27T10:02:35;102077.84;;;9.10;90.84
15382;BME280;7789;51.364;12.358;2024-01-27T10:07:40;102073.75;;;9.23;89.74
15382;BME280;7789;51.364;12.358;2024-01-27T10:12:46;102084.13;;;9.41;89.50
15382;BME280;7789;51.364;12.358;2024-01-27T10:18:03;102074.06;;;9.51;88.43
15382;BME280;7789;51.364;12.358;2024-01-27T10:23:11;102079.91;;;9.56;87.30
15382;BME280;7789;51.364;12.358;2024-01-27T10:28:15;102077.00;;;9.62;86.94
15382;BME280;7789;51.364;12.358;2024-01-27T10:33:20;102085.06;;;9.74;86.64
15382;BME280;7789;51.364;12.358;2024-01-27T10:38:33;102092.72;;;9.77;85.25
15382;BME280;7789;51.364;12.358;2024-01-27T10:43:37;102089.41;;;9.74;85.30
15382;BME280;7789;51.364;12.358;2024-01-27T10:48:48;102090.50;;;9.70;83.57
15382;BME280;7789;51.364;12.358;2024-01-27T10:53:56;102094.03;;;9.69;85.04
15382;BME280;7789;51.364;12.358;2024-01-27T10:59:07;102094.47;;;9.60;83.79
15382;BME280;7789;51.364;12.358;2024-01-27T11:04:14;102091.09;;;9.58;84.08
15382;BME280;7789;51.364;12.358;2024-01-27T11:09:20;102089.03;;;9.64;84.01
15382;BME280;7789;51.364;12.358;2024-01-27T11:14:25;102099.19;;;9.70;83.25
15382;BME280;7789;51.364;12.358;2024-01-27T11:19:32;102101.09;;;9.67;82.59
15382;BME280;7789;51.364;12.358;2024-01-27T11:24:36;102094.81;;;9.71;82.31
15382;BME280;7789;51.364;12.358;2024-01-27T11:29:47;102080.66;;;9.75;82.06
15382;BME280;7789;51.364;12.358;2024-01-27T11:34:52;102085.44;;;9.84;82.41
15382;BME280;7789;51.364;12.358;2024-01-27T11:40:04;102097.16;;;9.92;81.86
15382;BME280;7789;51.364;12.358;2024-01-27T11:45:09;102098.69;;;9.96;81.24
15382;BME280;7789;51.364;12.358;2024-01-27T11:50:17;102102.00;;;10.00;81.17
15382;BME280;7789;51.364;12.358;2024-01-27T11:55:24;102096.72;;;10.01;81.97
15382;BME280;7789;51.364;12.358;2024-01-27T12:00:28;102116.91;;;10.15;81.04
15382;BME280;7789;51.364;12.358;2024-01-27T12:05:34;102116.53;;;10.22;80.30
15382;BME280;7789;51.364;12.358;2024-01-27T12:10:38;102123.50;;;10.22;79.52
15382;BME280;7789;51.364;12.358;2024-01-27T12:15:46;102107.66;;;10.25;79.59
15382;BME280;7789;51.364;12.358;2024-01-27T12:20:55;102102.25;;;10.28;78.53
15382;BME280;7789;51.364;12.358;2024-01-27T12:26:00;102107.34;;;10.31;79.54
15382;BME280;7789;51.364;12.358;2024-01-27T12:31:04;102108.78;;;10.36;78.89
15382;BME280;7789;51.364;12.358;2024-01-27T12:36:13;102103.66;;;10.35;78.15
15382;BME280;7789;51.364;12.358;2024-01-27T12:41:17;102109.88;;;10.32;77.43
15382;BME280;7789;51.364;12.358;2024-01-27T12:46:20;102111.50;;;10.35;78.20
15382;BME280;7789;51.364;12.358;2024-01-27T12:51:25;102112.41;;;10.34;77.42
15382;BME280;7789;51.364;12.358;2024-01-27T12:56:32;102107.50;;;10.28;77.02
15382;BME280;7789;51.364;12.358;2024-01-27T13:01:36;102115.44;;;10.26;77.67
15382;BME280;7789;51.364;12.358;2024-01-27T13:06:42;102124.25;;;10.24;76.81
15382;BME280;7789;51.364;12.358;2024-01-27T13:11:45;102125.13;;;10.24;76.29
15382;BME280;7789;51.364;12.358;2024-01-27T13:16:50;102126.19;;;10.20;76.29
15382;BME280;7789;51.364;12.358;2024-01-27T13:21:57;102127.38;;;10.15;75.92
15382;BME280;7789;51.364;12.358;2024-01-27T13:27:03;102116.16;;;10.13;76.29
15382;BME280;7789;51.364;12.358;2024-01-27T13:32:07;102130.38;;;10.07;76.08
15382;BME280;7789;51.364;12.358;2024-01-27T13:37:12;102125.38;;;10.03;76.77
15382;BME280;7789;51.364;12.358;2024-01-27T13:42:18;102129.63;;;10.05;76.34
15382;BME280;7789;51.364;12.358;2024-01-27T13:47:24;102118.50;;;10.00;76.29
15382;BME280;7789;51.364;12.358;2024-01-27T13:52:29;102126.72;;;9.93;75.75
15382;BME280;7789;51.364;12.358;2024-01-27T13:57:38;102117.38;;;9.89;75.99
15382;BME280;7789;51.364;12.358;2024-01-27T14:02:41;102131.84;;;9.79;76.51
15382;BME280;7789;51.364;12.358;2024-01-27T14:07:47;102142.34;;;9.77;76.13
15382;BME280;7789;51.364;12.358;2024-01-27T14:12:50;102147.88;;;9.71;75.92
15382;BME280;7789;51.364;12.358;2024-01-27T14:17:54;102149.09;;;9.64;76.76
15382;BME280;7789;51.364;12.358;2024-01-27T14:23:00;102156.38;;;9.58;76.22
15382;BME280;7789;51.364;12.358;2024-01-27T14:28:04;102162.88;;;9.49;75.85
15382;BME280;7789;51.364;12.358;2024-01-27T14:33:09;102153.47;;;9.47;76.07
15382;BME280;7789;51.364;12.358;2024-01-27T14:38:15;102156.19;;;9.44;76.42
15382;BME280;7789;51.364;12.358;2024-01-27T14:43:18;102163.63;;;9.34;75.61
15382;BME280;7789;51.364;12.358;2024-01-27T14:48:22;102182.19;;;9.28;76.47
15382;BME280;7789;51.364;12.358;2024-01-27T14:53:35;102176.50;;;9.20;76.00
15382;BME280;7789;51.364;12.358;2024-01-27T14:58:41;102179.31;;;9.16;76.07
15382;BME280;7789;51.364;12.358;2024-01-27T15:03:48;102171.16;;;9.05;76.38
15382;BME280;7789;51.364;12.358;2024-01-27T15:08:54;102188.94;;;8.97;76.72
15382;BME280;7789;51.364;12.358;2024-01-27T15:13:58;102190.88;;;8.92;76.98
15382;BME280;7789;51.364;12.358;2024-01-27T15:19:02;102200.78;;;8.86;76.72
15382;BME280;7789;51.364;12.358;2024-01-27T15:24:07;102202.03;;;8.77;76.95
15382;BME280;7789;51.364;12.358;2024-01-27T15:29:12;102198.19;;;8.66;77.81
15382;BME280;7789;51.364;12.358;2024-01-27T15:34:19;102216.84;;;8.57;78.18
15382;BME280;7789;51.364;12.358;2024-01-27T15:39:25;102210.34;;;8.47;78.67
15382;BME280;7789;51.364;12.358;2024-01-27T15:44:30;102197.91;;;8.33;78.94
15382;BME280;7789;51.364;12.358;2024-01-27T15:49:36;102204.56;;;8.20;79.07
15382;BME280;7789;51.364;12.358;2024-01-27T15:54:41;102200.56;;;8.12;78.79
15382;BME280;7789;51.364;12.358;2024-01-27T15:59:45;102214.03;;;8.01;79.34
15382;BME280;7789;51.364;12.358;2024-01-27T16:04:49;102212.72;;;7.91;80.35
15382;BME280;7789;51.364;12.358;2024-01-27T16:09:54;102212.25;;;7.82;80.25
15382;BME280;7789;51.364;12.358;2024-01-27T16:15:04;102226.56;;;7.72;80.76
15382;BME280;7789;51.364;12.358;2024-01-27T16:20:09;102226.13;;;7.61;81.30
15382;BME280;7789;51.364;12.358;2024-01-27T16:25:14;102253.44;;;7.51;81.63
15382;BME280;7789;51.364;12.358;2024-01-27T16:30:18;102252.13;;;7.39;83.12
15382;BME280;7789;51.364;12.358;2024-01-27T16:35:22;102262.91;;;7.30;82.56
15382;BME280;7789;51.364;12.358;2024-01-27T16:40:27;102259.72;;;7.22;84.10
15382;BME280;7789;51.364;12.358;2024-01-27T16:45:30;102259.31;;;7.12;84.07
15382;BME280;7789;51.364;12.358;2024-01-27T16:50:35;102268.41;;;7.00;84.56
15382;BME280;7789;51.364;12.358;2024-01-27T16:55:41;102273.13;;;6.89;84.92
15382;BME280;7789;51.364;12.358;2024-01-27T17:00:45;102283.81;;;6.82;86.15
15382;BME280;7789;51.364;12.358;2024-01-27T17:05:48;102291.84;;;6.76;85.99
15382;BME280;7789;51.364;12.358;2024-01-27T17:10:53;102285.22;;;6.67;86.86
15382;BME280;7789;51.364;12.358;2024-01-27T17:15:58;102275.00;;;6.61;87.06
15382;BME280;7789;51.364;12.358;2024-01-27T17:21:02;102279.69;;;6.52;87.68
15382;BME280;7789;51.364;12.358;2024-01-27T17:26:07;102293.78;;;6.45;87.89
15382;BME280;7789;51.364;12.358;2024-01-27T17:31:13;102290.59;;;6.37;89.01
15382;BME280;7789;51.364;12.358;2024-01-27T17:36:19;102284.81;;;6.29;88.38
15382;BME280;7789;51.364;12.358;2024-01-27T17:41:28;102285.97;;;6.20;89.20
15382;BME280;7789;51.364;12.358;2024-01-27T17:46:31;102295.75;;;6.12;89.85
15382;BME280;7789;51.364;12.358;2024-01-27T17:51:38;102295.97;;;6.06;90.11
15382;BME280;7789;51.364;12.358;2024-01-27T17:56:45;102284.91;;;6.00;90.16
15382;BME280;7789;51.364;12.358;2024-01-27T18:01:48;102292.06;;;5.93;90.54
15382;BME280;7789;51.364;12.358;2024-01-27T18:06:52;102296.66;;;5.85;90.59
15382;BME280;7789;51.364;12.358;2024-01-27T18:11:58;102302.78;;;5.83;91.12
15382;BME280;7789;51.364;12.358;2024-01-27T18:17:03;102316.75;;;5.77;91.58
15382;BME280;7789;51.364;12.358;2024-01-27T18:22:07;102315.25;;;5.70;92.16
15382;BME280;7789;51.364;12.358;2024-01-27T18:27:13;102309.34;;;5.65;92.40
15382;BME280;7789;51.364;12.358;2024-01-27T18:32:18;102318.16;;;5.60;92.52
15382;BME280;7789;51.364;12.358;2024-01-27T18:37:22;102321.03;;;5.51;93.24
15382;BME280;7789;51.364;12.358;2024-01-27T18:42:27;102320.34;;;5.44;93.18
15382;BME280;7789;51.364;12.358;2024-01-27T18:47:31;102330.03;;;5.39;93.89
15382;BME280;7789;51.364;12.358;2024-01-27T18:52:35;102316.38;;;5.33;94.57
15382;BME280;7789;51.364;12.358;2024-01-27T18:57:40;102335.56;;;5.28;94.99
15382;BME280;7789;51.364;12.358;2024-01-27T19:02:44;102333.91;;;5.25;95.34
15382;BME280;7789;51.364;12.358;2024-01-27T19:07:48;102340.91;;;5.22;95.76
15382;BME280;7789;51.364;12.358;2024-01-27T19:12:53;102341.09;;;5.16;96.43
15382;BME280;7789;51.364;12.358;2024-01-27T19:17:56;102343.78;;;5.13;96.62
15382;BME280;7789;51.364;12.358;2024-01-27T19:23:00;102343.00;;;5.09;97.38
15382;BME280;7789;51.364;12.358;2024-01-27T19:28:07;102344.00;;;5.05;97.82
15382;BME280;7789;51.364;12.358;2024-01-27T19:33:10;102342.34;;;5.01;98.15
15382;BME280;7789;51.364;12.358;2024-01-27T19:38:14;102344.09;;;5.02;98.35
15382;BME280;7789;51.364;12.358;2024-01-27T19:43:20;102347.63;;;4.98;98.81
15382;BME280;7789;51.364;12.358;2024-01-27T19:48:23;102369.44;;;4.91;98.77
15382;BME280;7789;51.364;12.358;2024-01-27T19:53:27;102366.13;;;4.85;99.66
15382;BME280;7789;51.364;12.358;2024-01-27T19:58:33;102372.25;;;4.82;99.88
15382;BME280;7789;51.364;12.358;2024-01-27T20:03:36;102374.09;;;4.77;99.80
15382;BME280;7789;51.364;12.358;2024-01-27T20:08:39;102366.44;;;4.73;100.00
15382;BME280;7789;51.364;12.358;2024-01-27T20:13:45;102363.06;;;4.71;100.00
15382;BME280;7789;51.364;12.358;2024-01-27T20:18:48;102376.09;;;4.68;100.00
15382;BME280;7789;51.364;12.358;2024-01-27T20:23:52;102367.63;;;4.61;100.00
15382;BME280;7789;51.364;12.358;2024-01-27T20:28:57;102378.06;;;4.58;100.00
15382;BME280;7789;51.364;12.358;2024-01-27T20:34:01;102371.28;;;4.54;100.00
15382;BME280;7789;51.364;12.358;2024-01-27T20:39:04;102386.81;;;4.53;100.00
15382;BME280;7789;51.364;12.358;2024-01-27T20:44:13;102376.56;;;4.50;100.00
15382;BME280;7789;51.364;12.358;2024-01-27T20:49:16;102368.06;;;4.45;100.00
15382;BME280;7789;51.364;12.358;2024-01-27T20:54:20;102370.69;;;4.42;100.00
15382;BME280;7789;51.364;12.358;2024-01-27T20:59:25;102380.38;;;4.35;100.00
15382;BME280;7789;51.364;12.358;2024-01-27T21:04:30;102380.41;;;4.34;100.00
15382;BME280;7789;51.364;12.358;2024-01-27T21:09:42;102377.91;;;4.29;100.00
15382;BME280;7789;51.364;12.358;2024-01-27T21:14:50;102378.00;;;4.25;100.00
15382;BME280;7789;51.364;12.358;2024-01-27T21:19:53;102379.88;;;4.20;100.00
15382;BME280;7789;51.364;12.358;2024-01-27T21:24:58;102384.25;;;4.16;100.00
15382;BME280;7789;51.364;12.358;2024-01-27T21:30:05;102386.13;;;4.11;100.00
15382;BME280;7789;51.364;12.358;2024-01-27T21:35:10;102386.22;;;4.07;100.00
15382;BME280;7789;51.364;12.358;2024-01-27T21:40:14;102380.28;;;4.03;100.00
15382;BME280;7789;51.364;12.358;2024-01-27T21:45:22;102376.00;;;4.01;100.00
15382;BME280;7789;51.364;12.358;2024-01-27T21:50:25;102372.63;;;3.97;100.00
15382;BME280;7789;51.364;12.358;2024-01-27T21:55:29;102382.25;;;3.92;100.00
15382;BME280;7789;51.364;12.358;2024-01-27T22:00:34;102374.56;;;3.89;100.00
15382;BME280;7789;51.364;12.358;2024-01-27T22:05:38;102372.94;;;3.84;100.00
15382;BME280;7789;51.364;12.358;2024-01-27T22:10:43;102373.03;;;3.81;100.00
15382;BME280;7789;51.364;12.358;2024-01-27T22:15:49;102377.41;;;3.77;100.00
15382;BME280;7789;51.364;12.358;2024-01-27T22:20:57;102377.47;;;3.76;100.00
15382;BME280;7789;51.364;12.358;2024-01-27T22:26:06;102367.16;;;3.73;100.00
15382;BME280;7789;51.364;12.358;2024-01-27T22:31:12;102373.25;;;3.70;100.00
15382;BME280;7789;51.364;12.358;2024-01-27T22:36:18;102364.63;;;3.70;100.00
15382;BME280;7789;51.364;12.358;2024-01-27T22:41:21;102364.69;;;3.68;100.00
15382;BME280;7789;51.364;12.358;2024-01-27T22:46:27;102360.44;;;3.66;100.00
15382;BME280;7789;51.364;12.358;2024-01-27T22:51:31;102362.22;;;3.62;100.00
15382;BME280;7789;51.364;12.358;2024-01-27T22:56:35;102367.50;;;3.58;100.00
15382;BME280;7789;51.364;12.358;2024-01-27T23:01:41;102377.94;;;3.54;100.00
15382;BME280;7789;51.364;12.358;2024-01-27T23:06:45;102366.81;;;3.49;100.00
15382;BME280;7789;51.364;12.358;2024-01-27T23:11:49;102377.22;;;3.46;100.00
15382;BME280;7789;51.364;12.358;2024-01-27T23:16:57;102377.28;;;3.44;100.00
15382;BME280;7789;51.364;12.358;2024-01-27T23:22:00;102380.75;;;3.42;100.00
15382;BME280;7789;51.364;12.358;2024-01-27T23:27:04;102378.25;;;3.39;100.00
15382;BME280;7789;51.364;12.358;2024-01-27T23:32:11;102364.53;;;3.35;100.00
15382;BME280;7789;51.364;12.358;2024-01-27T23:37:15;102364.56;;;3.34;100.00
15382;BME280;7789;51.364;12.358;2024-01-27T23:42:19;102349.97;;;3.31;100.00
15382;BME280;7789;51.364;12.358;2024-01-27T23:47:25;102352.63;;;3.28;100.00
15382;BME280;7789;51.364;12.358;2024-01-27T23:52:29;102344.97;;;3.22;100.00
15382;BME280;7789;51.364;12.358;2024-01-27T23:57:38;102349.38;;;3.19;100.00
